Time;durP1;ratioP1;P1;durP2;ratioP2;P2;SDS_P1;SDS_P2;PMS_P1;PMS_P2;Temp;Humidity;BMP_temperature;BMP_pressure;BME280_temperature;BME280_humidity;BME280_pressure;Samples;Min_cycle;Max_cycle;Signal;HPM_P1;HPM_P2
2023/10/20 00:01:15;;;;;;;13.45;10.60;;;15.40;79.60;;;;;;5093386;28;20026;-63
2023/10/20 00:03:41;;;;;;;16.23;10.18;;;15.40;79.60;;;;;;5089600;28;20039;-64
2023/10/20 00:06:08;;;;;;;15.20;10.95;;;15.40;79.60;;;;;;5091951;28;20036;-65
2023/10/20 00:08:34;;;;;;;14.68;11.20;;;15.40;79.70;;;;;;5089997;28;20937;-63
2023/10/20 00:11:04;;;;;;;13.13;10.57;;;15.40;79.60;;;;;;5096358;28;20070;-64
2023/10/20 00:13:30;;;;;;;16.85;11.40;;;15.40;79.70;;;;;;5086601;28;20112;-63
2023/10/20 00:15:55;;;;;;;16.40;11.88;;;15.40;79.60;;;;;;5091977;28;20075;-64
2023/10/20 00:18:22;;;;;;;17.90;10.82;;;15.40;79.60;;;;;;5090836;28;20068;-64
2023/10/20 00:20:47;;;;;;;18.33;11.55;;;15.40;79.60;;;;;;5095636;28;20039;-64
2023/10/20 00:23:14;;;;;;;16.75;11.13;;;15.40;79.60;;;;;;5087512;28;20039;-63
2023/10/20 00:25:41;;;;;;;14.20;10.05;;;15.40;79.70;;;;;;5092262;28;20049;-63
2023/10/20 00:28:09;;;;;;;17.50;10.88;;;15.40;79.70;;;;;;5088062;28;20055;-64
2023/10/20 00:30:39;;;;;;;12.63;9.90;;;15.40;79.70;;;;;;5091585;28;20028;-62
2023/10/20 00:33:05;;;;;;;15.30;10.05;;;15.40;80.30;;;;;;5091607;28;20719;-63
2023/10/20 00:35:31;;;;;;;14.00;9.98;;;15.40;79.40;;;;;;5092560;28;20040;-64
2023/10/20 00:38:01;;;;;;;12.90;9.65;;;15.30;79.20;;;;;;5088763;28;20024;-63
2023/10/20 00:40:27;;;;;;;12.35;9.20;;;15.30;79.10;;;;;;5091100;28;20123;-64
2023/10/20 00:42:53;;;;;;;12.23;9.52;;;15.30;79.00;;;;;;5090860;28;20025;-62
2023/10/20 00:45:19;;;;;;;15.32;10.75;;;15.30;79.20;;;;;;5095197;28;20012;-64
2023/10/20 00:47:46;;;;;;;14.90;10.45;;;15.30;79.10;;;;;;5087552;28;20042;-64
2023/10/20 00:50:13;;;;;;;13.35;10.73;;;15.20;79.30;;;;;;5092181;28;20547;-64
2023/10/20 00:52:47;;;;;;;16.25;10.57;;;15.20;79.40;;;;;;5090880;28;20394;-64
2023/10/20 00:55:14;;;;;;;14.52;10.80;;;15.20;79.50;;;;;;5072221;28;20122;-64
2023/10/20 00:57:42;;;;;;;22.13;10.60;;;15.20;79.50;;;;;;5090650;28;20024;-63
2023/10/20 01:00:09;;;;;;;17.05;11.02;;;15.20;79.60;;;;;;5089703;28;20085;-64
2023/10/20 01:02:36;;;;;;;14.55;11.05;;;15.20;79.70;;;;;;5090231;28;20020;-63
2023/10/20 01:05:06;;;;;;;14.25;10.50;;;15.20;79.80;;;;;;5095143;28;20500;-63
2023/10/20 01:07:32;;;;;;;16.05;11.25;;;15.20;79.80;;;;;;5085098;28;20024;-64
2023/10/20 01:10:05;;;;;;;14.07;10.20;;;15.20;79.80;;;;;;5071812;28;20498;-64
2023/10/20 01:12:31;;;;;;;15.27;11.02;;;15.20;80.00;;;;;;5086812;28;20031;-63
2023/10/20 01:14:59;;;;;;;17.67;11.32;;;15.20;79.70;;;;;;5095602;28;21721;-65
2023/10/20 01:17:30;;;;;;;16.70;10.73;;;15.30;79.80;;;;;;5092933;28;20024;-63
2023/10/20 01:19:56;;;;;;;14.15;10.70;;;15.30;79.80;;;;;;5092374;28;20036;-65
2023/10/20 01:22:22;;;;;;;12.85;10.15;;;15.30;79.70;;;;;;5092247;28;20061;-64
2023/10/20 01:24:48;;;;;;;13.13;10.23;;;15.30;79.50;;;;;;5090015;28;20052;-65
2023/10/20 01:27:13;;;;;;;12.38;9.75;;;15.30;79.40;;;;;;5092842;28;20035;-64
2023/10/20 01:29:39;;;;;;;16.15;9.65;;;15.30;79.30;;;;;;5091724;28;20073;-64
2023/10/20 01:32:05;;;;;;;12.30;8.77;;;15.30;79.30;;;;;;5090816;28;20499;-63
2023/10/20 01:34:31;;;;;;;11.98;9.20;;;15.30;79.20;;;;;;5089781;28;20049;-65
2023/10/20 01:36:57;;;;;;;11.63;9.82;;;15.30;79.10;;;;;;5093090;28;20067;-62
2023/10/20 01:39:23;;;;;;;18.98;10.30;;;15.30;79.10;;;;;;5085470;28;20390;-64
2023/10/20 01:41:48;;;;;;;14.35;10.05;;;15.30;79.20;;;;;;5091783;28;20062;-64
2023/10/20 01:44:14;;;;;;;15.30;9.85;;;15.30;79.20;;;;;;5087376;28;20115;-62
2023/10/20 01:46:48;;;;;;;12.48;9.93;;;15.30;79.30;;;;;;5087013;28;20016;-64
2023/10/20 01:49:14;;;;;;;11.60;9.43;;;15.20;79.20;;;;;;5088018;28;20053;-64
2023/10/20 01:51:40;;;;;;;16.17;10.43;;;15.30;79.20;;;;;;5093922;28;20028;-63
2023/10/20 01:54:06;;;;;;;17.50;11.40;;;15.20;79.10;;;;;;5089917;28;20035;-63
2023/10/20 01:56:32;;;;;;;16.15;10.20;;;15.20;79.10;;;;;;5093660;28;20537;-63
2023/10/20 01:58:57;;;;;;;12.57;9.40;;;15.30;79.20;;;;;;5088980;28;20033;-64
2023/10/20 02:01:23;;;;;;;12.60;9.48;;;15.20;79.10;;;;;;5088508;28;20582;-65
2023/10/20 02:03:49;;;;;;;11.68;8.55;;;15.20;79.00;;;;;;5095902;28;20500;-64
2023/10/20 02:06:16;;;;;;;16.00;9.93;;;15.20;79.00;;;;;;5094721;28;20401;-63
2023/10/20 02:08:42;;;;;;;17.33;9.80;;;15.20;78.90;;;;;;5089761;28;20024;-62
2023/10/20 02:11:08;;;;;;;14.80;10.15;;;15.20;79.00;;;;;;5092516;28;21501;-63
2023/10/20 02:13:38;;;;;;;11.27;9.18;;;15.20;79.00;;;;;;5091964;28;20023;-64
2023/10/20 02:16:06;;;;;;;14.60;10.80;;;15.20;79.00;;;;;;5083747;28;20048;-64
2023/10/20 02:18:32;;;;;;;12.20;9.57;;;15.20;79.00;;;;;;5087402;28;20462;-64
2023/10/20 02:21:05;;;;;;;20.25;10.98;;;15.20;78.90;;;;;;5086367;28;20028;-63
2023/10/20 02:23:31;;;;;;;17.15;11.15;;;15.10;78.90;;;;;;5070330;28;20032;-62
2023/10/20 02:26:02;;;;;;;16.40;12.35;;;15.20;78.80;;;;;;5083344;28;20048;-64
2023/10/20 02:28:28;;;;;;;15.80;12.80;;;15.20;78.80;;;;;;5088574;28;20024;-64
2023/10/20 02:30:57;;;;;;;16.73;11.85;;;15.20;78.60;;;;;;5090699;28;20027;-65
2023/10/20 02:33:22;;;;;;;21.00;12.05;;;15.20;78.60;;;;;;5089187;28;20052;-64
2023/10/20 02:35:48;;;;;;;17.17;12.73;;;15.20;78.60;;;;;;5082037;28;20137;-63
2023/10/20 02:38:14;;;;;;;18.73;12.60;;;15.20;78.60;;;;;;5086465;28;20019;-64
2023/10/20 02:40:48;;;;;;;15.60;12.55;;;15.20;78.50;;;;;;5089247;28;20028;-64
2023/10/20 02:43:13;;;;;;;18.42;13.40;;;15.20;78.40;;;;;;5090299;28;20027;-64
2023/10/20 02:45:57;;;;;;;15.63;11.95;;;15.20;78.30;;;;;;5051421;28;20044;-63
2023/10/20 02:48:24;;;;;;;16.70;12.73;;;15.20;78.30;;;;;;5083270;28;20035;-64
2023/10/20 02:50:50;;;;;;;17.35;12.52;;;15.20;78.00;;;;;;5088944;28;20619;-63
2023/10/20 02:53:16;;;;;;;19.67;13.30;;;15.20;78.00;;;;;;5090064;28;20127;-63
2023/10/20 02:55:42;;;;;;;15.60;11.82;;;15.20;78.00;;;;;;5071698;28;20382;-64
2023/10/20 02:58:12;;;;;;;17.30;12.32;;;15.20;78.00;;;;;;5086429;28;20039;-64
2023/10/20 03:00:44;;;;;;;18.58;13.20;;;15.20;78.00;;;;;;5085082;28;20032;-64
2023/10/20 03:03:13;;;;;;;15.20;12.25;;;15.10;78.10;;;;;;5088523;28;20510;-64
2023/10/20 03:05:41;;;;;;;19.23;12.25;;;15.20;78.20;;;;;;5087090;28;20516;-64
2023/10/20 03:08:08;;;;;;;15.52;12.15;;;15.10;78.20;;;;;;5088055;28;20382;-64
2023/10/20 03:10:35;;;;;;;15.75;12.80;;;15.20;78.30;;;;;;5086228;28;20035;-64
2023/10/20 03:13:01;;;;;;;16.33;12.50;;;15.10;78.10;;;;;;5069408;28;20493;-64
2023/10/20 03:15:26;;;;;;;17.20;13.30;;;15.10;78.10;;;;;;5096726;28;20040;-65
2023/10/20 03:17:52;;;;;;;18.92;13.20;;;15.10;78.10;;;;;;5086074;28;20020;-64
2023/10/20 03:20:24;;;;;;;17.13;12.98;;;15.10;78.10;;;;;;5088064;28;20027;-62
2023/10/20 03:22:53;;;;;;;17.65;13.23;;;15.10;78.20;;;;;;5088650;28;20036;-63
2023/10/20 03:25:18;;;;;;;18.63;12.80;;;15.10;78.20;;;;;;5086146;28;20378;-63
2023/10/20 03:27:44;;;;;;;18.02;13.55;;;15.10;78.20;;;;;;5087207;28;20028;-63
2023/10/20 03:30:10;;;;;;;17.38;13.63;;;15.10;78.20;;;;;;5069684;28;20027;-63
2023/10/20 03:32:36;;;;;;;16.58;12.82;;;15.10;78.10;;;;;;5089682;28;20032;-64
2023/10/20 03:35:01;;;;;;;18.27;13.63;;;15.10;78.00;;;;;;5097764;28;20500;-65
2023/10/20 03:37:29;;;;;;;16.55;12.85;;;15.00;77.90;;;;;;5094693;28;20024;-63
2023/10/20 03:39:55;;;;;;;18.70;13.75;;;15.10;77.90;;;;;;5094957;28;20031;-65
2023/10/20 03:42:21;;;;;;;16.20;12.57;;;15.10;77.90;;;;;;5095409;28;20809;-63
2023/10/20 03:44:48;;;;;;;14.90;11.93;;;15.10;77.90;;;;;;5086085;28;20020;-65
2023/10/20 03:47:14;;;;;;;15.48;12.35;;;15.10;77.80;;;;;;5042998;28;20020;-64
2023/10/20 03:49:41;;;;;;;18.67;11.70;;;15.00;77.60;;;;;;5091165;28;20024;-63
2023/10/20 03:52:11;;;;;;;16.88;12.15;;;15.00;77.60;;;;;;5095469;28;20100;-65
2023/10/20 03:54:38;;;;;;;21.58;12.63;;;15.00;77.60;;;;;;5087978;28;20359;-64
2023/10/20 03:57:04;;;;;;;18.70;12.30;;;15.00;77.40;;;;;;5088556;28;20066;-64
2023/10/20 03:59:30;;;;;;;16.50;11.52;;;15.00;77.40;;;;;;5092347;28;20047;-64
2023/10/20 04:01:56;;;;;;;15.00;11.75;;;15.00;77.30;;;;;;5094444;28;20462;-64
2023/10/20 04:04:22;;;;;;;15.93;11.90;;;15.00;77.30;;;;;;5092734;28;20028;-63
2023/10/20 04:06:49;;;;;;;16.52;12.18;;;15.00;77.60;;;;;;5086488;28;20097;-65
2023/10/20 04:09:17;;;;;;;16.30;11.45;;;15.00;77.30;;;;;;5085820;28;20027;-64
2023/10/20 04:11:44;;;;;;;15.75;11.35;;;15.00;77.30;;;;;;5091579;28;20072;-65
2023/10/20 04:14:10;;;;;;;15.70;11.82;;;15.00;77.20;;;;;;5091109;28;20036;-64
2023/10/20 04:16:39;;;;;;;13.77;10.85;;;15.00;77.20;;;;;;5088395;28;20043;-64
2023/10/20 04:19:09;;;;;;;13.02;10.57;;;14.90;77.20;;;;;;5084787;28;20020;-65
2023/10/20 04:21:44;;;;;;;15.65;12.20;;;15.00;77.30;;;;;;5092843;28;20025;-64
2023/10/20 04:24:11;;;;;;;14.45;11.90;;;14.90;77.10;;;;;;5077134;28;20401;-64
2023/10/20 04:26:43;;;;;;;20.13;13.27;;;14.90;77.10;;;;;;5090742;28;20020;-64
2023/10/20 04:59:10;;;;;;;20.60;15.18;;;14.70;76.60;;;;;;5087677;28;20047;-64
2023/10/20 05:01:20;;;;;;;18.50;14.13;;;14.70;76.70;;;;;;5083952;28;20478;-65
2023/10/20 05:03:45;;;;;;;21.52;14.55;;;14.70;76.80;;;;;;5084529;28;20174;-65
2023/10/20 05:06:26;;;;;;;23.30;15.20;;;14.70;76.90;;;;;;5090697;28;20103;-64
2023/10/20 05:08:53;;;;;;;20.15;14.68;;;14.70;76.90;;;;;;5092691;28;20089;-64
2023/10/20 05:11:19;;;;;;;21.45;15.65;;;14.60;76.90;;;;;;5088888;28;20458;-64
2023/10/20 05:13:45;;;;;;;18.98;15.00;;;14.60;77.00;;;;;;5091757;28;20056;-64
2023/10/20 05:16:11;;;;;;;22.15;16.02;;;14.60;77.00;;;;;;5089438;28;20090;-64
2023/10/20 05:18:42;;;;;;;24.77;15.65;;;14.60;77.10;;;;;;5089336;28;20032;-64
2023/10/20 05:21:08;;;;;;;19.58;14.55;;;14.60;77.20;;;;;;5085019;28;20027;-65
2023/10/20 05:23:36;;;;;;;21.00;15.85;;;14.60;77.20;;;;;;5087218;28;20024;-65
2023/10/20 05:26:02;;;;;;;20.83;15.02;;;14.60;78.00;;;;;;5050356;28;1154231;-64
2023/10/20 05:28:29;;;;;;;21.33;15.43;;;14.60;77.40;;;;;;5090702;28;20023;-64
2023/10/20 05:30:55;;;;;;;19.10;14.77;;;14.60;77.40;;;;;;5083285;28;20025;-64
2023/10/20 05:33:21;;;;;;;19.25;14.23;;;14.60;77.50;;;;;;5086548;28;20366;-64
2023/10/20 05:35:46;;;;;;;23.05;15.40;;;14.60;77.50;;;;;;5092450;28;20043;-64
2023/10/20 05:38:12;;;;;;;20.27;14.38;;;14.60;77.50;;;;;;5096398;28;20358;-65
2023/10/20 05:40:39;;;;;;;18.55;13.55;;;14.60;77.50;;;;;;5070964;28;20810;-65
2023/10/20 05:43:08;;;;;;;20.60;15.13;;;14.70;77.60;;;;;;5093068;28;20020;-64
2023/10/20 05:45:40;;;;;;;21.70;14.88;;;14.60;77.60;;;;;;5048604;28;20068;-60
2023/10/20 05:48:06;;;;;;;20.98;14.57;;;14.60;77.50;;;;;;5082004;28;20024;-63
2023/10/20 05:50:36;;;;;;;21.48;14.32;;;14.70;77.50;;;;;;5087398;28;20051;-63
2023/10/20 05:53:03;;;;;;;22.27;14.23;;;14.70;77.40;;;;;;5092615;28;20943;-63
2023/10/20 05:55:28;;;;;;;21.35;14.45;;;14.70;77.40;;;;;;5081860;28;20561;-63
2023/10/20 05:57:54;;;;;;;19.85;14.02;;;14.70;77.40;;;;;;5087402;28;20127;-65
2023/10/20 06:00:20;;;;;;;21.08;14.45;;;14.70;77.30;;;;;;5084543;28;20047;-63
2023/10/20 06:02:46;;;;;;;22.50;14.95;;;14.70;77.30;;;;;;5086956;28;20400;-64
2023/10/20 06:05:13;;;;;;;21.83;15.02;;;14.70;77.30;;;;;;5088494;28;20028;-64
2023/10/20 06:07:43;;;;;;;20.58;14.80;;;14.70;77.20;;;;;;5088730;28;20012;-63
2023/10/20 06:10:11;;;;;;;24.58;15.90;;;14.70;77.20;;;;;;5085674;28;20112;-64
2023/10/20 06:12:38;;;;;;;20.55;15.68;;;14.70;77.10;;;;;;5085071;28;20020;-63
2023/10/20 06:15:06;;;;;;;19.33;15.23;;;14.70;77.10;;;;;;5086232;28;20574;-65
2023/10/20 06:17:32;;;;;;;20.88;16.23;;;14.60;77.10;;;;;;5084408;28;20020;-63
2023/10/20 06:19:58;;;;;;;25.75;16.88;;;14.70;77.20;;;;;;5088557;28;20073;-66
2023/10/20 06:22:23;;;;;;;26.10;16.67;;;14.60;77.00;;;;;;5088631;28;20026;-66
2023/10/20 06:24:49;;;;;;;23.65;17.05;;;14.60;77.00;;;;;;5088016;28;20402;-65
2023/10/20 06:27:15;;;;;;;20.10;15.52;;;14.60;77.00;;;;;;5083425;28;20127;-66
2023/10/20 06:29:54;;;;;;;20.83;15.20;;;14.60;77.20;;;;;;5083879;28;20020;-64
2023/10/20 06:32:26;;;;;;;26.77;17.50;;;14.60;77.20;;;;;;5082513;28;20024;-65
2023/10/20 06:35:00;;;;;;;27.35;18.92;;;14.60;77.80;;;;;;5083226;28;20067;-65
2023/10/20 06:37:35;;;;;;;21.58;16.55;;;14.60;77.10;;;;;;5084320;28;20032;-65
2023/10/20 06:40:03;;;;;;;24.95;17.27;;;14.60;77.00;;;;;;5088379;28;20370;-64
2023/10/20 06:42:29;;;;;;;24.08;18.25;;;14.70;77.10;;;;;;5083049;28;20028;-66
2023/10/20 06:44:55;;;;;;;24.17;18.23;;;14.70;77.10;;;;;;5088201;28;20104;-64
2023/10/20 06:47:21;;;;;;;29.15;18.50;;;14.70;77.20;;;;;;5030189;28;20059;-65
2023/10/20 06:49:47;;;;;;;21.65;17.70;;;14.70;77.20;;;;;;5093540;28;20020;-66
2023/10/20 06:52:19;;;;;;;23.40;18.52;;;14.70;77.10;;;;;;5070980;28;20028;-66
2023/10/20 06:54:48;;;;;;;25.75;18.35;;;14.70;77.20;;;;;;5091713;28;20068;-65
2023/10/20 06:57:14;;;;;;;25.83;19.15;;;14.70;77.10;;;;;;5082289;28;20027;-64
2023/10/20 06:59:40;;;;;;;29.80;18.35;;;14.80;77.10;;;;;;5088264;28;20031;-64
2023/10/20 07:02:05;;;;;;;26.67;18.08;;;14.80;77.10;;;;;;5083667;28;20085;-64
2023/10/20 07:04:31;;;;;;;29.98;18.88;;;14.80;77.10;;;;;;5087263;28;20020;-63
2023/10/20 07:06:58;;;;;;;27.55;19.05;;;14.80;77.10;;;;;;5081340;28;20039;-66
2023/10/20 07:09:26;;;;;;;27.02;19.20;;;14.80;77.10;;;;;;5081862;28;20034;-66
2023/10/20 07:11:53;;;;;;;23.80;18.38;;;14.80;77.00;;;;;;5080578;28;20165;-66
2023/10/20 07:14:18;;;;;;;26.10;18.60;;;14.80;77.00;;;;;;5086560;28;20032;-65
2023/10/20 07:16:44;;;;;;;25.27;19.17;;;14.90;77.00;;;;;;5086389;28;20047;-64
2023/10/20 07:19:11;;;;;;;23.80;18.08;;;14.90;77.00;;;;;;5088150;28;20055;-64
2023/10/20 07:21:36;;;;;;;27.65;19.10;;;14.90;77.00;;;;;;5079758;28;20031;-64
2023/10/20 07:24:03;;;;;;;28.33;19.02;;;14.90;76.90;;;;;;5090618;28;20012;-65
2023/10/20 07:26:29;;;;;;;28.67;20.67;;;14.90;76.70;;;;;;5083760;28;20097;-62
2023/10/20 07:28:55;;;;;;;30.25;19.63;;;14.90;76.70;;;;;;5081242;28;20028;-63
2023/10/20 07:31:23;;;;;;;29.13;19.77;;;14.90;76.60;;;;;;5082754;28;20039;-65
2023/10/20 07:33:50;;;;;;;26.52;20.35;;;14.90;76.70;;;;;;5086450;28;20025;-66
2023/10/20 07:36:16;;;;;;;27.33;18.50;;;14.90;76.70;;;;;;5088850;28;20055;-65
2023/10/20 07:38:45;;;;;;;28.25;19.50;;;15.00;76.60;;;;;;5090363;28;20024;-65
2023/10/20 07:41:12;;;;;;;27.95;19.73;;;15.00;76.60;;;;;;5089339;28;20020;-64
2023/10/20 07:43:39;;;;;;;30.50;20.98;;;15.00;76.60;;;;;;5086476;28;20530;-64
2023/10/20 07:46:05;;;;;;;27.75;20.48;;;15.00;76.60;;;;;;5088991;28;20477;-64
2023/10/20 07:48:32;;;;;;;29.63;20.02;;;14.90;76.30;;;;;;5083343;28;20028;-63
2023/10/20 07:51:01;;;;;;;27.02;20.50;;;15.00;76.40;;;;;;5090522;28;20524;-65
2023/10/20 07:53:29;;;;;;;25.85;19.85;;;14.90;76.50;;;;;;5088323;28;20028;-64
2023/10/20 07:55:55;;;;;;;28.10;19.65;;;14.90;76.50;;;;;;5088131;28;20047;-65
2023/10/20 07:58:21;;;;;;;27.25;21.25;;;15.00;76.70;;;;;;5083493;28;20086;-64
2023/10/20 08:00:46;;;;;;;26.75;20.90;;;15.00;76.70;;;;;;5093575;28;20019;-64
2023/10/20 08:03:12;;;;;;;32.33;21.80;;;15.00;76.60;;;;;;5087544;28;20073;-64
2023/10/20 08:05:38;;;;;;;30.73;21.83;;;15.00;76.60;;;;;;5087955;28;20731;-65
2023/10/20 08:08:04;;;;;;;31.33;22.33;;;15.00;76.50;;;;;;5084144;28;20999;-64
2023/10/20 08:10:33;;;;;;;30.95;21.00;;;15.00;76.50;;;;;;5086672;28;20048;-65
2023/10/20 08:12:59;;;;;;;48.67;34.70;;;15.10;76.50;;;;;;5082943;28;20028;-66
2023/10/20 08:15:28;;;;;;;31.58;22.98;;;15.10;76.50;;;;;;5084586;28;20040;-65
2023/10/20 08:17:55;;;;;;;26.50;19.77;;;15.10;76.40;;;;;;5089101;28;20043;-64
2023/10/20 08:20:21;;;;;;;27.98;21.15;;;15.10;76.50;;;;;;5093380;28;20021;-64
2023/10/20 08:22:47;;;;;;;29.90;22.10;;;15.10;76.40;;;;;;5085986;28;20495;-65
2023/10/20 08:25:13;;;;;;;30.65;21.42;;;15.10;76.10;;;;;;5083664;28;20048;-64
2023/10/20 08:27:39;;;;;;;32.20;20.58;;;15.20;75.90;;;;;;5091404;28;20024;-64
2023/10/20 08:30:05;;;;;;;26.83;20.58;;;15.10;75.60;;;;;;5093325;28;20043;-64
2023/10/20 08:32:31;;;;;;;30.77;21.65;;;15.10;75.50;;;;;;5087130;28;20042;-62
2023/10/20 08:34:57;;;;;;;27.33;21.23;;;15.10;75.60;;;;;;5089031;28;20035;-64
2023/10/20 08:37:22;;;;;;;29.35;22.45;;;15.10;75.50;;;;;;5092037;28;20525;-64
2023/10/20 08:39:48;;;;;;;31.58;21.67;;;15.00;75.60;;;;;;5095807;28;20031;-64
2023/10/20 08:42:18;;;;;;;29.88;21.65;;;15.00;75.70;;;;;;5091163;28;20664;-64
2023/10/20 08:44:44;;;;;;;27.83;21.25;;;15.00;75.80;;;;;;5090737;28;20477;-64
2023/10/20 08:47:12;;;;;;;38.28;24.20;;;15.00;76.00;;;;;;5038018;28;20043;-63
2023/10/20 08:49:39;;;;;;;34.60;23.85;;;15.00;76.00;;;;;;5094539;28;20020;-63
2023/10/20 08:52:08;;;;;;;31.45;23.80;;;15.00;75.80;;;;;;5086079;28;20527;-62
2023/10/20 08:54:34;;;;;;;29.25;23.00;;;15.00;75.80;;;;;;5088627;28;20036;-63
2023/10/20 08:57:00;;;;;;;32.83;24.20;;;15.00;76.00;;;;;;5093381;28;20027;-64
2023/10/20 08:59:26;;;;;;;30.27;23.65;;;15.10;76.10;;;;;;5084215;28;20470;-64
2023/10/20 09:01:52;;;;;;;31.55;24.52;;;15.10;75.90;;;;;;5095499;28;20043;-64
2023/10/20 09:04:25;;;;;;;32.35;22.92;;;15.10;75.80;;;;;;5091714;28;20051;-64
2023/10/20 09:06:52;;;;;;;29.57;22.73;;;15.10;75.80;;;;;;5091475;28;20122;-64
2023/10/20 09:09:21;;;;;;;32.17;23.35;;;15.10;75.90;;;;;;5089734;28;20031;-64
2023/10/20 09:11:48;;;;;;;31.45;22.90;;;15.10;75.90;;;;;;5106933;27;20016;-64
2023/10/20 09:14:14;;;;;;;30.55;23.38;;;15.10;75.90;;;;;;5087725;28;20028;-65
2023/10/20 09:16:42;;;;;;;28.30;21.15;;;15.10;76.00;;;;;;5088291;28;20520;-64
2023/10/20 09:19:11;;;;;;;29.27;22.35;;;15.20;76.20;;;;;;5109046;27;20039;-64
2023/10/20 09:21:41;;;;;;;28.40;22.45;;;15.20;76.20;;;;;;5093350;28;20028;-64
2023/10/20 09:24:08;;;;;;;32.65;24.33;;;15.20;76.20;;;;;;5089938;28;20393;-63
2023/10/20 09:26:36;;;;;;;33.90;24.40;;;15.20;76.00;;;;;;5087990;28;20027;-63
2023/10/20 09:29:05;;;;;;;32.38;23.75;;;15.30;75.90;;;;;;5085063;28;20482;-63
2023/10/20 09:31:31;;;;;;;30.83;23.25;;;15.30;75.70;;;;;;5081344;28;20842;-64
2023/10/20 09:33:57;;;;;;;31.88;23.17;;;15.30;76.30;;;;;;5090127;28;20461;-64
2023/10/20 09:36:23;;;;;;;34.42;22.38;;;15.30;75.50;;;;;;5091952;28;20032;-65
2023/10/20 09:38:56;;;;;;;30.23;21.88;;;15.30;75.60;;;;;;5091892;28;20386;-63
2023/10/20 09:41:24;;;;;;;33.70;21.85;;;15.30;75.60;;;;;;5091738;28;20030;-64
2023/10/20 09:44:02;;;;;;;31.88;22.98;;;15.30;75.60;;;;;;5090594;28;20078;-63
2023/10/20 09:47:06;;;;;;;32.08;22.80;;;15.30;75.70;;;;;;4988086;28;20031;-63
2023/10/20 09:49:35;;;;;;;29.50;22.65;;;15.30;75.60;;;;;;5086888;28;20053;-63
2023/10/20 09:52:01;;;;;;;39.50;23.38;;;15.40;75.90;;;;;;5089969;28;20020;-63
2023/10/20 09:54:30;;;;;;;35.95;24.10;;;15.40;76.20;;;;;;5087787;28;20036;-63
2023/10/20 09:56:57;;;;;;;32.45;23.63;;;15.40;76.30;;;;;;5091665;28;20024;-63
2023/10/20 09:59:26;;;;;;;33.00;22.88;;;15.50;76.20;;;;;;5087035;28;20031;-64
2023/10/20 10:01:56;;;;;;;29.65;22.58;;;15.60;76.10;;;;;;5087431;28;20169;-64
2023/10/20 10:04:27;;;;;;;32.92;22.65;;;15.70;76.10;;;;;;5064573;28;20109;-64
2023/10/20 10:06:52;;;;;;;30.85;22.58;;;15.80;76.00;;;;;;5085832;28;20047;-64
2023/10/20 10:09:18;;;;;;;29.40;23.08;;;15.90;75.90;;;;;;5088184;28;20028;-65
2023/10/20 10:11:44;;;;;;;33.75;23.95;;;15.90;75.80;;;;;;5090028;28;20024;-64
2023/10/20 10:14:21;;;;;;;32.45;24.92;;;16.00;75.60;;;;;;5075301;28;20030;-64
2023/10/20 10:16:53;;;;;;;30.83;22.48;;;16.10;74.30;;;;;;5090904;28;20032;-64
2023/10/20 10:19:19;;;;;;;32.03;22.35;;;16.20;74.50;;;;;;5090924;28;20421;-64
2023/10/20 10:21:50;;;;;;;30.60;21.23;;;16.30;74.40;;;;;;5089763;28;20019;-65
2023/10/20 10:24:22;;;;;;;26.88;20.05;;;16.30;74.10;;;;;;5087297;28;20056;-65
2023/10/20 10:26:57;;;;;;;29.20;22.25;;;16.50;75.10;;;;;;5094295;28;20023;-64
2023/10/20 10:29:59;;;;;;;29.23;20.75;;;16.40;74.30;;;;;;5087991;28;20478;-64
2023/10/20 10:32:31;;;;;;;26.65;20.92;;;16.40;74.30;;;;;;5090294;28;20024;-64
2023/10/20 10:34:58;;;;;;;31.83;22.13;;;16.50;74.70;;;;;;5089264;28;20498;-64
2023/10/20 10:37:35;;;;;;;35.13;22.73;;;16.70;74.60;;;;;;5087848;28;20115;-64
2023/10/20 10:40:08;;;;;;;30.63;22.23;;;16.70;73.90;;;;;;5090218;28;20074;-64
2023/10/20 10:42:39;;;;;;;28.17;21.90;;;16.80;73.60;;;;;;5085861;28;20347;-65
2023/10/20 10:45:23;;;;;;;27.95;22.45;;;16.80;73.60;;;;;;5082473;28;20384;-64
2023/10/20 10:48:09;;;;;;;29.70;21.67;;;16.90;73.30;;;;;;5083652;28;20040;-65
2023/10/20 10:50:46;;;;;;;27.05;19.73;;;17.00;73.80;;;;;;5108611;28;20054;-64
2023/10/20 10:53:13;;;;;;;24.15;18.92;;;17.10;73.80;;;;;;5119884;28;20032;-64
2023/10/20 10:55:41;;;;;;;30.15;20.95;;;17.20;73.70;;;;;;5109941;28;20035;-63
2023/10/20 10:58:09;;;;;;;25.00;18.98;;;17.30;73.40;;;;;;5092744;28;20112;-63
2023/10/20 11:00:36;;;;;;;24.38;18.52;;;17.40;73.70;;;;;;5091054;28;20111;-64
2023/10/20 11:03:03;;;;;;;30.20;22.75;;;17.50;73.60;;;;;;5087311;28;20179;-63
2023/10/20 11:05:31;;;;;;;27.58;20.42;;;17.60;73.40;;;;;;5085649;28;20035;-64
2023/10/20 11:08:02;;;;;;;27.80;20.13;;;17.80;73.20;;;;;;5092003;28;20094;-65
2023/10/20 11:10:30;;;;;;;29.42;19.15;;;17.80;72.70;;;;;;5083914;28;20435;-65
2023/10/20 11:12:56;;;;;;;24.92;17.60;;;17.90;72.90;;;;;;5089850;28;20540;-65
2023/10/20 11:15:31;;;;;;;22.67;17.45;;;17.90;72.90;;;;;;5081557;28;20135;-63
2023/10/20 11:17:58;;;;;;;24.15;18.30;;;18.10;72.80;;;;;;5084259;28;20385;-63
2023/10/20 11:20:24;;;;;;;25.65;16.77;;;18.20;72.80;;;;;;5089378;28;20459;-65
2023/10/20 11:22:54;;;;;;;22.27;16.67;;;18.20;72.60;;;;;;5088320;28;20103;-64
2023/10/20 11:25:20;;;;;;;22.75;15.90;;;18.30;72.40;;;;;;5082145;28;20071;-64
2023/10/20 11:27:53;;;;;;;24.80;15.55;;;18.40;72.50;;;;;;5084609;28;20478;-64
2023/10/20 11:30:31;;;;;;;21.10;15.35;;;18.50;72.10;;;;;;5084490;28;20027;-64
2023/10/20 11:32:57;;;;;;;20.45;14.70;;;18.60;71.40;;;;;;5084972;28;20035;-64
2023/10/20 11:35:24;;;;;;;19.67;14.57;;;18.60;71.90;;;;;;5088850;28;20067;-64
2023/10/20 11:37:54;;;;;;;18.77;14.43;;;18.70;71.90;;;;;;5089665;28;20040;-64
2023/10/20 11:40:20;;;;;;;18.38;15.20;;;18.80;71.90;;;;;;5069837;28;20089;-63
2023/10/20 11:42:46;;;;;;;21.30;16.08;;;18.90;72.00;;;;;;5080690;28;20039;-64
2023/10/20 11:45:12;;;;;;;25.98;18.17;;;19.00;71.70;;;;;;5085542;28;20405;-63
2023/10/20 11:47:39;;;;;;;20.27;16.73;;;19.10;71.40;;;;;;5005992;28;20032;-64
2023/10/20 11:50:08;;;;;;;26.55;16.35;;;19.10;71.20;;;;;;5086902;28;20035;-63
2023/10/20 11:52:36;;;;;;;19.67;15.40;;;19.20;71.30;;;;;;5084677;28;20020;-64
2023/10/20 11:55:02;;;;;;;20.85;16.55;;;19.30;71.20;;;;;;5085896;28;20067;-63
2023/10/20 11:57:27;;;;;;;19.45;13.98;;;19.40;71.00;;;;;;5093766;28;20067;-66
2023/10/20 11:59:53;;;;;;;20.02;14.65;;;19.50;70.90;;;;;;5089111;28;20495;-62
2023/10/20 12:02:19;;;;;;;19.10;14.75;;;19.50;70.60;;;;;;5091143;28;20486;-63
2023/10/20 12:04:45;;;;;;;19.65;15.05;;;19.50;70.50;;;;;;5091037;28;20370;-64
2023/10/20 12:07:10;;;;;;;19.15;14.85;;;19.60;70.70;;;;;;5094008;28;20024;-63
2023/10/20 12:09:36;;;;;;;24.70;15.40;;;19.60;70.50;;;;;;5087797;28;20031;-63
2023/10/20 12:12:02;;;;;;;23.02;15.07;;;19.70;70.90;;;;;;5093854;28;20130;-63
2023/10/20 12:14:27;;;;;;;20.63;15.00;;;19.80;71.00;;;;;;5090130;28;20032;-66
2023/10/20 12:16:53;;;;;;;19.45;14.30;;;19.90;70.90;;;;;;5090742;28;20094;-63
2023/10/20 12:19:19;;;;;;;18.92;14.18;;;20.10;70.60;;;;;;5085079;28;20416;-64
2023/10/20 12:21:45;;;;;;;18.88;13.75;;;20.10;70.30;;;;;;5088863;28;20036;-62
2023/10/20 12:24:10;;;;;;;21.40;14.20;;;20.20;70.50;;;;;;5092481;28;20028;-63
2023/10/20 12:26:39;;;;;;;21.75;13.57;;;20.40;70.60;;;;;;5090887;28;20077;-63
2023/10/20 12:29:06;;;;;;;24.73;14.57;;;20.50;70.20;;;;;;5086406;28;20032;-64
2023/10/20 12:31:32;;;;;;;17.55;12.05;;;20.70;69.60;;;;;;5090590;28;20482;-63
2023/10/20 12:33:58;;;;;;;15.00;12.07;;;20.90;69.40;;;;;;5084546;28;20039;-64
2023/10/20 12:36:26;;;;;;;18.85;12.07;;;21.00;69.00;;;;;;5091860;28;20040;-65
2023/10/20 12:38:51;;;;;;;14.10;11.18;;;21.00;68.20;;;;;;5086552;28;20024;-65
2023/10/20 12:41:18;;;;;;;14.38;11.00;;;21.10;68.20;;;;;;5095261;28;20485;-65
2023/10/20 12:43:45;;;;;;;15.82;9.95;;;21.20;68.10;;;;;;5085567;28;20633;-63
2023/10/20 12:46:11;;;;;;;13.40;9.70;;;21.20;68.30;;;;;;5094990;28;20020;-65
2023/10/20 12:48:37;;;;;;;13.65;9.98;;;21.20;68.40;;;;;;5094274;28;20107;-64
2023/10/20 12:51:10;;;;;;;5.35;4.65;;;21.30;68.40;;;;;;5093377;28;20028;-64
2023/10/20 12:53:36;;;;;;;4.15;2.88;;;21.40;66.30;;;;;;5088103;28;20017;-64
2023/10/20 12:56:02;;;;;;;2.03;1.70;;;21.50;64.90;;;;;;5076915;28;20036;-63
2023/10/20 12:58:28;;;;;;;4.13;1.60;;;21.50;64.60;;;;;;5083766;28;20069;-65
2023/10/20 13:00:54;;;;;;;5.30;1.52;;;21.60;64.30;;;;;;5068050;28;20039;-65